createdAt,value
2022-11-17T00:04:08.434Z,102.15
2022-11-17T00:19:31.057Z,101.49
2022-11-17T00:34:36.654Z,100.39
2022-11-17T00:49:42.348Z,99.21
2022-11-17T01:04:48.060Z,98.18
2022-11-17T01:19:53.744Z,97.10
2022-11-17T01:34:59.514Z,96.27
2022-11-17T01:50:12.025Z,96.61
2022-11-17T02:05:28.520Z,98.32
2022-11-17T02:20:53.080Z,100.79
2022-11-17T02:36:06.466Z,102.03
2022-11-17T02:51:16.870Z,103.23
2022-11-17T03:06:33.710Z,101.17
2022-11-17T03:21:43.410Z,98.15
2022-11-17T03:36:53.635Z,99.42
2022-11-17T03:52:00.051Z,92.94
2022-11-17T04:07:05.766Z,92.75
2022-11-17T04:22:11.647Z,96.39
2022-11-17T04:37:18.724Z,102.58
2022-11-17T04:52:29.670Z,106.10
2022-11-17T05:07:35.837Z,105.08
2022-11-17T05:23:02.564Z,100.32
2022-11-17T05:38:12.348Z,101.86
2022-11-17T05:53:18.127Z,103.06
2022-11-17T06:08:23.868Z,103.21
2022-11-17T06:23:33.496Z,103.57
2022-11-17T06:38:39.488Z,103.29
2022-11-17T06:53:45.183Z,104.58
2022-11-17T07:08:51.168Z,104.85
2022-11-17T07:23:56.908Z,105.61
2022-11-17T07:39:02.889Z,106.88
2022-11-17T07:54:08.740Z,106.21
2022-11-17T08:09:16.118Z,106.43
2022-11-17T08:24:21.824Z,91.93
2022-11-17T08:39:27.566Z,89.98
2022-11-17T08:54:33.426Z,89.35
2022-11-17T09:09:39.353Z,91.34
2022-11-17T09:24:45.195Z,91.82
2022-11-17T09:39:50.937Z,90.92
2022-11-17T09:55:00.493Z,91.02
2022-11-17T10:10:13.661Z,91.32
2022-11-17T10:25:41.031Z,90.62
2022-11-17T10:40:52.395Z,87.32
2022-11-17T10:56:04.136Z,85.83
2022-11-17T11:11:17.414Z,82.57
2022-11-17T11:26:36.896Z,82.52
2022-11-17T11:42:07.490Z,79.78
2022-11-17T11:57:16.316Z,81.09
2022-11-17T12:12:29.680Z,80.51
2022-11-17T12:27:46.429Z,76.42
2022-11-17T12:43:30.160Z,76.49
2022-11-17T12:58:50.548Z,79.21
2022-11-17T13:14:14.097Z,77.53
2022-11-17T13:29:23.588Z,77.89
2022-11-17T13:44:30.354Z,76.97
2022-11-17T13:59:37.874Z,77.18
2022-11-17T14:14:46.566Z,78.80
2022-11-17T14:29:52.527Z,80.12
2022-11-17T14:44:58.235Z,78.14
2022-11-17T15:00:04.455Z,79.01
2022-11-17T15:15:11.272Z,79.52
2022-11-17T15:30:17.836Z,82.29
2022-11-17T15:45:23.642Z,85.15
2022-11-17T16:00:29.500Z,88.58
2022-11-17T16:15:35.395Z,91.36
2022-11-17T16:30:41.932Z,96.71
2022-11-17T16:45:47.788Z,99.61
2022-11-17T17:00:53.792Z,101.66
2022-11-17T17:16:04.858Z,103.71
2022-11-17T17:31:10.782Z,103.76
2022-11-17T17:46:18.217Z,103.66
2022-11-17T18:01:25.577Z,104.24
2022-11-17T18:16:33.510Z,105.63
2022-11-17T18:31:39.592Z,104.62
2022-11-17T18:46:45.559Z,104.80
2022-11-17T19:01:51.480Z,104.93
2022-11-17T19:16:58.142Z,105.11
2022-11-17T19:32:04.219Z,104.29
2022-11-17T19:47:11.046Z,105.52
2022-11-17T20:02:16.752Z,105.64
2022-11-17T20:17:22.493Z,106.08
2022-11-17T20:32:30.880Z,106.05
2022-11-17T20:47:36.707Z,106.27
2022-11-17T21:02:42.534Z,106.10
2022-11-17T21:18:05.560Z,106.16
2022-11-17T21:33:11.355Z,105.65
2022-11-17T21:48:16.888Z,106.75
2022-11-17T22:03:24.117Z,105.98
2022-11-17T22:18:29.716Z,107.01
2022-11-17T22:33:35.165Z,107.01
2022-11-17T22:48:40.791Z,107.05
2022-11-17T23:03:47.973Z,107.41
2022-11-17T23:18:56.164Z,107.70
2022-11-17T23:34:01.778Z,109.09
2022-11-17T23:49:07.533Z,108.87
